createdAt,value
2018-05-02T00:02:30.783Z,47.10
2018-05-02T00:05:10.164Z,45.30
2018-05-02T00:07:46.552Z,44.20
2018-05-02T00:10:22.252Z,43.80
2018-05-02T00:12:59.878Z,44.10
2018-05-02T00:15:35.120Z,44.70
2018-05-02T00:18:09.888Z,45.60
2018-05-02T00:20:43.583Z,46.20
2018-05-02T00:23:17.213Z,47.90
2018-05-02T00:25:51.600Z,48.80
2018-05-02T00:28:25.164Z,49.40
2018-05-02T00:30:58.894Z,50.40
2018-05-02T00:33:34.679Z,50.70
2018-05-02T00:36:11.472Z,51.00
2018-05-02T00:38:45.691Z,51.80
2018-05-02T00:41:20.840Z,52.60
2018-05-02T00:43:55.152Z,51.90
2018-05-02T00:46:30.088Z,51.80
2018-05-02T00:49:16.680Z,52.80
2018-05-02T00:51:55.058Z,53.20
2018-05-02T00:54:31.629Z,52.10
2018-05-02T00:57:08.010Z,50.70
2018-05-02T00:59:43.370Z,49.60
2018-05-02T01:02:19.096Z,47.90
2018-05-02T01:04:53.652Z,46.30
2018-05-02T01:07:29.173Z,46.00
2018-05-02T01:10:05.030Z,46.30
2018-05-02T01:12:38.909Z,46.30
2018-05-02T01:15:13.940Z,46.20
2018-05-02T01:17:47.607Z,46.20
2018-05-02T01:20:22.746Z,46.30
2018-05-02T01:22:56.651Z,46.20
2018-05-02T01:25:31.676Z,47.70
2018-05-02T01:28:06.098Z,48.30
2018-05-02T01:30:40.745Z,48.30
2018-05-02T01:33:16.100Z,49.00
2018-05-02T01:35:50.895Z,49.40
2018-05-02T01:38:26.142Z,50.90
2018-05-02T01:40:59.999Z,50.80
2018-05-02T01:43:34.058Z,52.00
2018-05-02T01:46:07.739Z,53.50
2018-05-02T01:48:53.324Z,54.40
2018-05-02T01:51:27.179Z,54.40
2018-05-02T01:54:00.826Z,54.40
2018-05-02T01:56:35.283Z,55.20
2018-05-02T01:59:09.115Z,55.20
2018-05-02T02:01:42.861Z,56.40
2018-05-02T02:04:17.005Z,57.70
2018-05-02T02:06:52.684Z,59.20
2018-05-02T02:09:29.378Z,62.60
2018-05-02T02:12:04.744Z,63.90
2018-05-02T02:14:38.380Z,65.30
2018-05-02T02:17:13.654Z,65.60
2018-05-02T02:19:48.424Z,65.60
2018-05-02T02:22:23.320Z,66.40
2018-05-02T02:24:57.827Z,69.20
2018-05-02T02:27:31.601Z,69.20
2018-05-02T02:30:07.499Z,69.90
2018-05-02T02:32:42.187Z,69.90
2018-05-02T02:35:17.731Z,71.20
2018-05-02T02:37:52.665Z,71.20
2018-05-02T02:40:28.346Z,71.20
2018-05-02T02:43:02.119Z,71.10
2018-05-02T02:45:36.896Z,71.10
2018-05-02T02:48:11.175Z,71.50
2018-05-02T02:50:47.190Z,72.60
2018-05-02T02:53:21.789Z,73.70
2018-05-02T02:55:57.357Z,73.40
2018-05-02T02:58:31.157Z,73.30
2018-05-02T03:03:46.399Z,72.10
2018-05-02T03:06:20.908Z,72.10
2018-05-02T03:08:54.868Z,72.30
2018-05-02T03:11:28.595Z,72.60
2018-05-02T03:14:02.871Z,73.00
2018-05-02T03:16:36.586Z,73.20
2018-05-02T03:19:10.363Z,73.20
2018-05-02T03:21:45.324Z,73.60
2018-05-02T03:24:19.850Z,75.20
2018-05-02T03:26:55.061Z,75.20
2018-05-02T03:29:35.554Z,74.90
2018-05-02T03:32:11.152Z,75.20
2018-05-02T03:34:48.665Z,75.20
2018-05-02T03:37:25.401Z,75.20
2018-05-02T03:40:00.759Z,75.20
2018-05-02T03:42:36.308Z,75.20
2018-05-02T03:45:12.243Z,75.20
2018-05-02T03:47:47.809Z,74.60
2018-05-02T03:50:22.640Z,74.30
2018-05-02T03:52:57.520Z,73.40
2018-05-02T03:55:33.290Z,73.40
2018-05-02T03:58:07.024Z,73.50
2018-05-02T04:00:53.088Z,74.20
2018-05-02T04:03:40.408Z,74.50
2018-05-02T04:06:30.335Z,74.40
2018-05-02T04:09:05.404Z,74.20
2018-05-02T04:11:39.868Z,74.10
2018-05-02T04:14:18.811Z,73.70
2018-05-02T04:16:53.425Z,74.20
2018-05-02T04:19:28.841Z,73.60
2018-05-02T04:22:04.676Z,73.50
2018-05-02T04:24:39.934Z,73.90
2018-05-02T04:27:15.670Z,73.20
2018-05-02T04:29:49.659Z,71.50
2018-05-02T04:32:24.550Z,71.40
2018-05-02T04:35:01.310Z,71.40
2018-05-02T04:37:35.732Z,70.00
2018-05-02T04:40:10.488Z,69.00
2018-05-02T04:42:46.581Z,67.90
2018-05-02T04:45:21.004Z,67.80
2018-05-02T04:47:56.885Z,67.50
2018-05-02T04:50:33.887Z,67.10
2018-05-02T04:53:08.315Z,66.40
2018-05-02T04:55:42.646Z,65.80
2018-05-02T04:58:17.112Z,64.30
2018-05-02T05:00:51.843Z,63.10
2018-05-02T05:03:26.457Z,63.10
2018-05-02T05:06:04.325Z,60.00
2018-05-02T05:08:40.360Z,60.00
2018-05-02T05:11:22.975Z,59.10
2018-05-02T05:13:59.339Z,58.00
2018-05-02T05:16:37.580Z,56.10
2018-05-02T05:19:22.818Z,54.40
2018-05-02T05:21:57.303Z,53.80
2018-05-02T05:24:31.635Z,52.50
2018-05-02T05:27:07.906Z,51.60
2018-05-02T05:29:44.540Z,48.30
2018-05-02T05:35:04.544Z,47.10
2018-05-02T05:37:39.272Z,46.50
2018-05-02T05:40:13.929Z,46.20
2018-05-02T05:42:47.864Z,45.30
2018-05-02T05:45:36.055Z,43.00
2018-05-02T05:48:12.114Z,40.60
2018-05-02T05:50:46.957Z,37.20
2018-05-02T05:53:25.988Z,36.00
2018-05-02T05:56:04.345Z,34.40
2018-05-02T05:58:40.569Z,32.30
2018-05-02T06:01:15.154Z,30.80
2018-05-02T06:03:55.107Z,28.00
2018-05-02T06:06:30.555Z,28.00
2018-05-02T06:09:05.533Z,27.40
2018-05-02T06:11:39.716Z,26.60
2018-05-02T06:14:13.488Z,25.90
2018-05-02T06:19:35.127Z,23.80
2018-05-02T06:22:10.884Z,23.00
2018-05-02T06:24:47.241Z,22.00
2018-05-02T06:27:24.956Z,20.40
2018-05-02T06:30:04.856Z,19.50
2018-05-02T06:32:40.006Z,19.60
2018-05-02T06:35:13.787Z,18.50
2018-05-02T06:37:47.625Z,17.90
2018-05-02T06:40:27.740Z,17.60
2018-05-02T06:43:02.621Z,17.60
2018-05-02T06:45:40.607Z,17.70
2018-05-02T06:48:15.824Z,16.90
2018-05-02T06:50:53.686Z,15.90
2018-05-02T06:53:28.480Z,15.60
2018-05-02T06:56:03.172Z,14.80
2018-05-02T06:58:42.886Z,14.60
2018-05-02T07:01:22.356Z,13.70
2018-05-02T07:03:57.966Z,12.90
2018-05-02T07:06:33.218Z,11.40
2018-05-02T07:09:07.656Z,11.20
2018-05-02T07:11:42.359Z,11.00
2018-05-02T07:14:17.751Z,9.80
2018-05-02T07:16:52.225Z,9.50
2018-05-02T07:19:29.311Z,9.20
2018-05-02T07:22:03.264Z,9.20
2018-05-02T07:24:37.708Z,8.00
2018-05-02T07:27:11.576Z,8.10
2018-05-02T07:29:45.326Z,7.30
2018-05-02T07:32:19.032Z,6.90
2018-05-02T07:34:52.928Z,6.30
2018-05-02T07:37:26.727Z,6.50
2018-05-02T07:40:04.357Z,5.50
2018-05-02T07:42:38.211Z,5.50
2018-05-02T07:45:12.651Z,4.80
2018-05-02T07:47:47.187Z,4.70
2018-05-02T07:50:20.968Z,4.70
2018-05-02T07:52:54.732Z,5.10
2018-05-02T07:55:28.537Z,4.90
2018-05-02T07:58:02.229Z,3.90
2018-05-02T08:00:35.908Z,3.50
2018-05-02T08:03:09.651Z,3.50
2018-05-02T08:05:43.454Z,3.10
2018-05-02T08:08:17.256Z,3.50
2018-05-02T08:10:51.038Z,2.70
2018-05-02T08:13:25.559Z,2.30
2018-05-02T08:15:59.365Z,2.30
2018-05-02T08:21:36.048Z,1.90
2018-05-02T08:24:09.686Z,1.00
2018-05-02T08:26:45.048Z,1.00
2018-05-02T08:29:18.808Z,1.00
2018-05-02T08:31:52.558Z,1.00
2018-05-02T08:34:27.113Z,1.00
2018-05-02T08:37:00.884Z,1.00
2018-05-02T08:39:34.582Z,1.00
2018-05-02T08:42:08.798Z,1.00
2018-05-02T08:44:42.480Z,1.00
2018-05-02T08:47:16.353Z,1.00
2018-05-02T08:49:50.044Z,1.00
2018-05-02T08:52:24.580Z,1.00
2018-05-02T08:54:58.455Z,1.00
2018-05-02T08:57:32.353Z,1.00
2018-05-02T09:00:06.107Z,1.00
2018-05-02T09:02:39.821Z,1.00
2018-05-02T09:05:14.159Z,1.00
2018-05-02T09:07:47.767Z,1.00
2018-05-02T09:10:21.545Z,1.00
2018-05-02T09:12:55.266Z,1.00
2018-05-02T09:15:29.102Z,1.00
2018-05-02T09:18:02.783Z,1.00
2018-05-02T09:20:36.583Z,1.00
2018-05-02T09:23:10.387Z,1.00
2018-05-02T09:25:44.386Z,1.00
2018-05-02T09:28:18.067Z,1.00
2018-05-02T09:30:51.915Z,1.00
2018-05-02T09:33:26.276Z,1.00
2018-05-02T09:36:00.071Z,1.00
2018-05-02T09:38:34.640Z,1.00
2018-05-02T09:41:08.465Z,1.00
2018-05-02T09:43:42.234Z,1.00
2018-05-02T09:46:15.874Z,1.00
2018-05-02T09:48:49.472Z,1.00
2018-05-02T09:51:23.306Z,1.00
2018-05-02T09:53:58.414Z,1.00
2018-05-02T09:56:32.120Z,1.00
2018-05-02T09:59:05.890Z,1.00
2018-05-02T10:01:39.612Z,1.00
2018-05-02T10:04:14.033Z,1.00
2018-05-02T10:06:47.842Z,1.00
2018-05-02T10:09:21.568Z,1.00
2018-05-02T10:11:55.309Z,1.00
2018-05-02T10:14:29.107Z,1.00
2018-05-02T10:17:02.852Z,1.00
2018-05-02T10:19:37.491Z,1.00
2018-05-02T10:22:11.217Z,1.00
2018-05-02T10:24:44.914Z,1.00
2018-05-02T10:27:18.665Z,1.00
2018-05-02T10:29:52.439Z,1.00
2018-05-02T10:32:26.178Z,1.00
2018-05-02T10:35:05.325Z,1.00
2018-05-02T10:37:40.457Z,1.00
2018-05-02T10:40:14.203Z,1.00
2018-05-02T10:42:48.803Z,1.00
2018-05-02T10:45:22.482Z,1.00
2018-05-02T10:47:56.151Z,1.00
2018-05-02T10:50:30.002Z,1.00
2018-05-02T10:53:04.434Z,1.00
2018-05-02T10:55:38.323Z,1.00
2018-05-02T10:58:12.119Z,1.00
2018-05-02T11:00:46.111Z,1.00
2018-05-02T11:03:19.838Z,1.00
2018-05-02T11:05:53.553Z,1.00
2018-05-02T11:08:27.416Z,1.00
2018-05-02T11:11:01.792Z,1.00
2018-05-02T11:13:35.671Z,1.00
2018-05-02T11:16:09.347Z,1.00
2018-05-02T11:18:43.067Z,1.00
2018-05-02T11:21:17.435Z,1.00
2018-05-02T11:23:51.862Z,1.00
2018-05-02T11:26:25.793Z,1.00
2018-05-02T11:28:59.576Z,1.00
2018-05-02T11:31:33.311Z,1.00
2018-05-02T11:34:07.126Z,1.00
2018-05-02T11:36:40.817Z,1.00
2018-05-02T11:39:15.791Z,1.00
2018-05-02T11:41:49.568Z,1.00
2018-05-02T11:44:23.259Z,1.00
2018-05-02T11:46:57.138Z,1.00
2018-05-02T11:49:31.796Z,1.00
2018-05-02T11:52:05.451Z,1.00
2018-05-02T11:54:40.234Z,1.00
2018-05-02T11:57:13.843Z,1.00
2018-05-02T11:59:47.639Z,1.00
2018-05-02T12:02:22.199Z,1.00
2018-05-02T12:04:55.850Z,1.00
2018-05-02T12:07:29.583Z,1.00
2018-05-02T12:10:03.417Z,1.00
2018-05-02T12:12:37.065Z,1.00
2018-05-02T12:15:12.356Z,1.00
2018-05-02T12:17:46.076Z,1.00
2018-05-02T12:20:21.426Z,1.00
2018-05-02T12:22:55.064Z,1.00
2018-05-02T12:25:29.415Z,1.00
2018-05-02T12:28:03.925Z,1.00
2018-05-02T12:30:37.799Z,1.00
2018-05-02T12:33:12.420Z,1.00
2018-05-02T12:35:46.055Z,1.00
2018-05-02T12:38:19.874Z,1.00
2018-05-02T12:40:53.515Z,1.00
2018-05-02T12:43:27.388Z,1.00
2018-05-02T12:46:01.059Z,1.00
2018-05-02T12:48:34.834Z,1.00
2018-05-02T12:51:08.645Z,1.00
2018-05-02T12:53:42.308Z,1.00
2018-05-02T12:56:16.199Z,1.00
2018-05-02T12:58:49.802Z,1.00
2018-05-02T13:01:23.661Z,1.00
2018-05-02T13:03:57.465Z,1.00
2018-05-02T13:06:31.183Z,1.00
2018-05-02T13:09:05.626Z,1.00
2018-05-02T13:11:39.402Z,1.00
2018-05-02T13:14:13.164Z,1.00
2018-05-02T13:16:48.941Z,1.00
2018-05-02T13:19:22.656Z,1.00
2018-05-02T13:21:57.540Z,1.00
2018-05-02T13:24:31.915Z,1.00
2018-05-02T13:27:06.428Z,1.00
2018-05-02T13:29:40.786Z,1.00
2018-05-02T13:32:14.580Z,1.00
2018-05-02T13:34:48.358Z,1.00
2018-05-02T13:37:23.607Z,1.00
2018-05-02T13:39:57.200Z,1.00
2018-05-02T13:42:31.054Z,1.00
2018-05-02T13:45:05.528Z,1.00
2018-05-02T13:47:40.440Z,1.00
2018-05-02T13:50:14.275Z,1.00
2018-05-02T13:52:48.082Z,1.00
2018-05-02T13:55:21.977Z,1.00
2018-05-02T13:57:55.591Z,1.00
2018-05-02T14:00:29.195Z,1.00
2018-05-02T14:03:02.859Z,1.00
2018-05-02T14:05:36.703Z,1.00
2018-05-02T14:08:10.414Z,1.00
2018-05-02T14:10:44.102Z,1.00
2018-05-02T14:13:17.843Z,1.00
2018-05-02T14:15:51.512Z,1.00
2018-05-02T14:21:31.392Z,1.00
2018-05-02T14:24:05.087Z,1.00
2018-05-02T14:26:38.811Z,1.00
2018-05-02T14:29:24.280Z,1.00
2018-05-02T14:31:58.147Z,1.00
2018-05-02T14:34:31.962Z,1.00
2018-05-02T14:37:06.287Z,1.00
2018-05-02T14:39:40.032Z,1.00
2018-05-02T14:42:14.502Z,1.00
2018-05-02T14:44:48.200Z,1.00
2018-05-02T14:47:21.918Z,1.00
2018-05-02T14:49:55.711Z,1.00
2018-05-02T14:52:30.021Z,1.00
2018-05-02T14:55:04.643Z,1.00
2018-05-02T14:57:38.367Z,1.00
2018-05-02T15:00:11.968Z,1.00
2018-05-02T15:02:50.560Z,1.00
2018-05-02T15:05:24.183Z,1.00
2018-05-02T15:07:57.818Z,1.00
2018-05-02T15:10:31.377Z,1.00
2018-05-02T15:13:05.110Z,1.00
2018-05-02T15:18:17.972Z,1.00
2018-05-02T15:20:52.381Z,1.00
2018-05-02T15:23:25.943Z,1.00
2018-05-02T15:25:59.781Z,1.00
2018-05-02T15:28:34.910Z,1.00
2018-05-02T15:31:08.646Z,1.00
2018-05-02T15:33:43.125Z,1.00
2018-05-02T15:36:19.435Z,1.00
2018-05-02T15:38:53.760Z,1.00
2018-05-02T15:41:29.928Z,1.00
2018-05-02T15:44:09.386Z,1.00
2018-05-02T15:46:45.510Z,1.00
2018-05-02T15:49:19.106Z,1.00
2018-05-02T15:51:54.358Z,1.00
2018-05-02T15:54:29.327Z,1.00
2018-05-02T15:57:03.423Z,1.00
2018-05-02T15:59:39.543Z,1.00
2018-05-02T16:02:13.696Z,1.00
2018-05-02T16:04:48.243Z,1.00
2018-05-02T16:07:22.287Z,1.00
2018-05-02T16:09:57.696Z,1.00
2018-05-02T16:12:32.923Z,1.00
2018-05-02T16:15:06.673Z,1.00
2018-05-02T16:17:40.791Z,1.00
2018-05-02T16:20:14.501Z,1.00
2018-05-02T16:22:52.439Z,1.00
2018-05-02T16:28:31.780Z,1.00
2018-05-02T16:34:28.248Z,1.00
2018-05-02T16:49:22.405Z,1.00
2018-05-02T16:51:56.911Z,1.00
2018-05-02T16:54:44.672Z,1.00
2018-05-02T16:57:25.621Z,1.00
2018-05-02T17:00:00.883Z,1.00
2018-05-02T17:02:40.028Z,1.00
2018-05-02T17:08:20.940Z,1.00
2018-05-02T17:10:55.200Z,1.00
2018-05-02T17:13:29.564Z,1.00
2018-05-02T17:16:04.138Z,1.00
2018-05-02T17:18:42.337Z,1.00
2018-05-02T17:21:24.623Z,1.00
2018-05-02T17:24:07.468Z,1.00
2018-05-02T17:26:47.370Z,1.00
2018-05-02T17:32:24.332Z,1.00
2018-05-02T17:35:00.963Z,1.00
2018-05-02T17:37:34.633Z,1.00
2018-05-02T17:40:11.232Z,1.00
2018-05-02T17:42:46.515Z,1.00
2018-05-02T17:45:20.783Z,1.00
2018-05-02T17:47:55.617Z,1.00
2018-05-02T17:50:30.943Z,1.00
2018-05-02T17:53:05.103Z,1.00
2018-05-02T17:55:41.838Z,1.00
2018-05-02T17:58:17.901Z,1.00
2018-05-02T18:00:53.695Z,1.00
2018-05-02T18:03:27.503Z,1.00
2018-05-02T18:06:02.704Z,1.00
2018-05-02T18:08:36.430Z,1.00
2018-05-02T18:11:13.610Z,1.00
2018-05-02T18:13:47.642Z,1.00
2018-05-02T18:16:23.575Z,1.00
2018-05-02T18:19:01.262Z,1.00
2018-05-02T18:21:40.493Z,1.00
2018-05-02T18:24:14.615Z,1.00
2018-05-02T18:26:49.004Z,1.00
2018-05-02T18:29:24.345Z,1.00
2018-05-02T18:35:05.299Z,1.00
2018-05-02T18:37:42.037Z,1.00
2018-05-02T18:40:18.340Z,1.30
2018-05-02T18:42:56.498Z,1.30
2018-05-02T18:45:32.863Z,1.30
2018-05-02T18:48:07.538Z,1.20
2018-05-02T18:50:42.418Z,1.50
2018-05-02T18:53:17.749Z,1.20
2018-05-02T18:55:51.505Z,1.20
2018-05-02T18:58:25.919Z,1.20
2018-05-02T19:00:59.704Z,1.80
2018-05-02T19:03:33.497Z,2.10
2018-05-02T19:06:07.519Z,2.40
2018-05-02T19:08:42.019Z,3.40
2018-05-02T19:11:16.686Z,3.90
2018-05-02T19:13:56.182Z,3.90
2018-05-02T19:16:30.001Z,4.50
2018-05-02T19:19:09.550Z,4.50
2018-05-02T19:21:43.217Z,4.60
2018-05-02T19:24:16.980Z,5.40
2018-05-02T19:26:50.801Z,6.80
2018-05-02T19:29:24.574Z,7.20
2018-05-02T19:32:04.147Z,8.20
2018-05-02T19:34:37.865Z,8.20
2018-05-02T19:37:11.683Z,9.00
2018-05-02T19:39:51.975Z,10.40
2018-05-02T19:42:31.379Z,10.40
2018-05-02T19:45:05.731Z,10.90
2018-05-02T19:47:39.490Z,10.90
2018-05-02T19:50:13.336Z,11.10
2018-05-02T19:52:48.845Z,11.30
2018-05-02T19:55:22.589Z,11.60
2018-05-02T19:57:56.310Z,11.70
2018-05-02T20:00:35.684Z,11.70
2018-05-02T20:03:09.415Z,12.10
2018-05-02T20:05:43.164Z,11.70
2018-05-02T20:08:35.662Z,11.70
2018-05-02T20:11:15.048Z,11.70
2018-05-02T20:13:54.562Z,11.70
2018-05-02T20:16:28.383Z,11.80
2018-05-02T20:19:02.315Z,11.70
2018-05-02T20:21:36.311Z,11.70
2018-05-02T20:24:09.935Z,11.60
2018-05-02T20:26:44.596Z,12.70
2018-05-02T20:29:18.312Z,12.70
2018-05-02T20:31:52.127Z,13.10
2018-05-02T20:34:27.946Z,14.00
2018-05-02T20:37:01.726Z,14.00
2018-05-02T20:39:36.289Z,15.20
2018-05-02T20:42:10.088Z,15.20
2018-05-02T20:44:43.869Z,15.50
2018-05-02T20:47:17.708Z,16.10
2018-05-02T20:49:51.458Z,16.80
2018-05-02T20:52:25.197Z,17.60
2018-05-02T20:54:59.296Z,17.60
2018-05-02T20:57:32.897Z,18.60
2018-05-02T21:00:06.887Z,19.90
2018-05-02T21:02:40.662Z,20.70
2018-05-02T21:05:15.392Z,20.90
2018-05-02T21:07:49.381Z,21.00
2018-05-02T21:10:23.244Z,21.60
2018-05-02T21:12:57.523Z,22.10
2018-05-02T21:15:31.165Z,21.90
2018-05-02T21:18:05.683Z,22.70
2018-05-02T21:20:39.405Z,22.70
2018-05-02T21:23:14.353Z,23.70
2018-05-02T21:25:48.189Z,24.10
2018-05-02T21:28:22.096Z,24.90
2018-05-02T21:30:55.970Z,25.40
2018-05-02T21:33:29.651Z,25.80
2018-05-02T21:36:03.239Z,25.90
2018-05-02T21:38:37.910Z,27.00
2018-05-02T21:41:11.536Z,27.00
2018-05-02T21:43:46.001Z,28.20
2018-05-02T21:46:19.789Z,28.20
2018-05-02T21:48:54.690Z,28.90
2018-05-02T21:51:29.451Z,29.30
2018-05-02T21:54:03.989Z,30.00
2018-05-02T21:56:37.644Z,30.00
2018-05-02T21:59:11.381Z,30.90
2018-05-02T22:01:45.804Z,31.60
2018-05-02T22:04:19.435Z,32.80
2018-05-02T22:06:53.790Z,32.70
2018-05-02T22:09:29.500Z,32.70
2018-05-02T22:12:03.421Z,32.70
2018-05-02T22:14:37.147Z,32.70
2018-05-02T22:17:12.490Z,34.50
2018-05-02T22:19:47.199Z,35.20
2018-05-02T22:22:21.073Z,34.60
2018-05-02T22:24:55.651Z,35.80
2018-05-02T22:27:29.320Z,35.80
2018-05-02T22:30:03.164Z,36.50
2018-05-02T22:32:37.016Z,37.20
2018-05-02T22:35:10.733Z,37.70
2018-05-02T22:37:44.443Z,37.80
2018-05-02T22:40:18.301Z,38.30
2018-05-02T22:42:51.958Z,38.50
2018-05-02T22:45:25.763Z,39.30
2018-05-02T22:47:59.476Z,39.40
2018-05-02T22:50:33.886Z,39.20
2018-05-02T22:53:08.374Z,39.40
2018-05-02T22:55:43.408Z,39.40
2018-05-02T22:58:18.846Z,38.80
2018-05-02T23:00:52.484Z,38.80
2018-05-02T23:03:26.253Z,39.00
2018-05-02T23:06:00.778Z,39.00
2018-05-02T23:08:34.644Z,39.60
2018-05-02T23:11:08.291Z,38.70
2018-05-02T23:13:41.857Z,38.60
2018-05-02T23:16:16.427Z,38.70
2018-05-02T23:18:50.038Z,38.70
2018-05-02T23:21:23.847Z,38.00
2018-05-02T23:23:57.504Z,37.40
2018-05-02T23:26:31.255Z,36.60
2018-05-02T23:29:05.041Z,36.40
2018-05-02T23:31:39.619Z,36.90
2018-05-02T23:34:13.251Z,36.50
2018-05-02T23:36:46.923Z,36.80
2018-05-02T23:39:20.657Z,37.50
2018-05-02T23:41:54.417Z,37.80
2018-05-02T23:44:28.028Z,38.20
2018-05-02T23:47:01.835Z,38.30
2018-05-02T23:49:35.591Z,35.70
2018-05-02T23:52:09.259Z,33.30
2018-05-02T23:54:42.996Z,31.30
2018-05-02T23:57:17.518Z,31.70
2018-05-02T23:59:51.182Z,31.50
